createdAt,value
2017-09-10T00:00:04.904Z,21.4
2017-09-10T00:02:05.681Z,21.4
2017-09-10T00:04:08.111Z,21.4
2017-09-10T00:06:04.921Z,21.4
2017-09-10T00:08:04.641Z,21.4
2017-09-10T00:10:04.764Z,21.4
2017-09-10T00:12:05.471Z,21.4
2017-09-10T00:14:04.687Z,21.4
2017-09-10T00:16:05.436Z,21.4
2017-09-10T00:18:05.403Z,21.4
2017-09-10T00:20:05.118Z,21.4
2017-09-10T00:22:04.977Z,21.4
2017-09-10T00:24:04.691Z,21.4
2017-09-10T00:26:07.919Z,21.4
2017-09-10T00:28:12.306Z,21.4
2017-09-10T00:30:07.545Z,21.4
2017-09-10T00:32:10.426Z,21.4
2017-09-10T00:34:09.863Z,21.4
2017-09-10T00:36:08.081Z,21.4
2017-09-10T00:38:07.412Z,21.4
2017-09-10T00:40:07.828Z,21.4
2017-09-10T00:42:05.564Z,21.4
2017-09-10T00:44:05.276Z,21.4
2017-09-10T00:46:05.053Z,21.4
2017-09-10T00:48:07.300Z,21.4
2017-09-10T00:50:05.115Z,21.4
2017-09-10T00:52:05.564Z,21.3
2017-09-10T00:54:05.246Z,21.3
2017-09-10T00:56:08.033Z,21.3
2017-09-10T00:58:04.885Z,21.3
2017-09-10T01:00:10.614Z,21.3
2017-09-10T01:02:05.365Z,21.3
2017-09-10T01:04:05.160Z,21.3
2017-09-10T01:06:04.846Z,21.4
2017-09-10T01:08:05.175Z,21.3
2017-09-10T01:10:07.528Z,21.3
2017-09-10T01:12:07.780Z,21.3
2017-09-10T01:14:05.495Z,21.3
2017-09-10T01:16:05.209Z,21.3
2017-09-10T01:18:07.647Z,21.4
2017-09-10T01:20:04.874Z,21.3
2017-09-10T01:22:05.237Z,21.3
2017-09-10T01:24:04.983Z,21.3
2017-09-10T01:26:05.194Z,21.3
2017-09-10T01:28:05.006Z,21.3
2017-09-10T01:30:05.312Z,21.3
2017-09-10T01:32:05.065Z,21.3
2017-09-10T01:34:04.872Z,21.3
2017-09-10T01:36:05.750Z,21.3
2017-09-10T01:38:10.062Z,21.3
2017-09-10T01:40:07.307Z,21.3
2017-09-10T01:42:05.030Z,21.3
2017-09-10T01:44:07.244Z,21.3
2017-09-10T01:46:07.617Z,21.3
2017-09-10T01:48:05.297Z,21.3
2017-09-10T01:50:05.516Z,21.3
2017-09-10T01:52:05.317Z,21.3
2017-09-10T01:54:05.033Z,21.3
2017-09-10T01:56:04.724Z,21.3
2017-09-10T01:58:10.148Z,21.3
2017-09-10T02:00:07.397Z,21.3
2017-09-10T02:02:12.693Z,21.3
2017-09-10T02:04:05.633Z,21.3
2017-09-10T02:06:05.318Z,21.3
2017-09-10T02:08:05.026Z,21.3
2017-09-10T02:10:12.452Z,21.3
2017-09-10T02:12:05.239Z,21.3
2017-09-10T02:14:05.022Z,21.3
2017-09-10T02:16:04.729Z,21.3
2017-09-10T02:18:04.621Z,21.2
2017-09-10T02:20:05.372Z,21.3
2017-09-10T02:22:05.262Z,21.3
2017-09-10T02:24:07.682Z,21.2
2017-09-10T02:26:04.929Z,21.2
2017-09-10T02:28:04.696Z,21.2
2017-09-10T02:30:05.437Z,21.2
2017-09-10T02:32:04.652Z,21.2
2017-09-10T02:34:07.432Z,21.2
2017-09-10T02:36:05.109Z,21.2
2017-09-10T02:38:04.849Z,21.2
2017-09-10T02:40:05.235Z,21.2
2017-09-10T02:42:04.878Z,21.2
2017-09-10T02:44:05.564Z,21.2
2017-09-10T02:46:05.340Z,21.2
2017-09-10T02:48:05.062Z,21.2
2017-09-10T02:50:04.757Z,21.2
2017-09-10T02:52:04.987Z,21.2
2017-09-10T02:54:05.202Z,21.2
2017-09-10T02:56:04.994Z,21.2
2017-09-10T02:58:04.890Z,21.2
2017-09-10T03:00:08.087Z,21.2
2017-09-10T03:02:05.398Z,21.2
2017-09-10T03:04:05.297Z,21.2
2017-09-10T03:06:05.067Z,21.2
2017-09-10T03:08:04.856Z,21.2
2017-09-10T03:10:05.056Z,21.2
2017-09-10T03:12:05.327Z,21.2
2017-09-10T03:14:05.186Z,21.2
2017-09-10T03:16:04.910Z,21.2
2017-09-10T03:18:07.378Z,21.2
2017-09-10T03:20:07.596Z,21.2
2017-09-10T03:22:05.434Z,21.2
2017-09-10T03:24:07.783Z,21.2
2017-09-10T03:26:05.053Z,21.1
2017-09-10T03:28:04.919Z,21.2
2017-09-10T03:30:04.636Z,21.1
2017-09-10T03:32:05.363Z,21.2
2017-09-10T03:34:07.829Z,21.2
2017-09-10T03:36:05.572Z,21.1
2017-09-10T03:38:05.276Z,21.2
2017-09-10T03:40:05.235Z,21.1
2017-09-10T03:42:04.936Z,21.1
2017-09-10T03:44:04.647Z,21.1
2017-09-10T03:46:05.532Z,21.2
2017-09-10T03:48:05.216Z,21.1
2017-09-10T03:50:04.903Z,21.1
2017-09-10T03:52:08.245Z,21.1
2017-09-10T03:54:07.485Z,21.1
2017-09-10T03:56:04.685Z,21.1
2017-09-10T03:58:15.551Z,21.1
2017-09-10T04:00:05.429Z,21.1
2017-09-10T04:02:05.139Z,21.1
2017-09-10T04:04:05.443Z,21.1
2017-09-10T04:06:05.100Z,21.1
2017-09-10T04:08:04.872Z,21.1
2017-09-10T04:10:04.729Z,21.1
2017-09-10T04:12:05.495Z,21.1
2017-09-10T04:14:05.180Z,21.1
2017-09-10T04:16:07.578Z,21.1
2017-09-10T04:18:05.524Z,21.1
2017-09-10T04:20:07.757Z,21.1
2017-09-10T04:22:07.554Z,21.1
2017-09-10T04:24:05.270Z,21.1
2017-09-10T04:26:04.934Z,21.1
2017-09-10T04:28:04.686Z,21.1
2017-09-10T04:30:07.704Z,21.1
2017-09-10T04:32:05.376Z,21.1
2017-09-10T04:34:07.703Z,21.1
2017-09-10T04:36:05.432Z,21.1
2017-09-10T04:38:05.120Z,21.1
2017-09-10T04:40:04.901Z,21.1
2017-09-10T04:42:10.666Z,21.1
2017-09-10T04:44:07.491Z,21
2017-09-10T04:46:07.948Z,21.1
2017-09-10T04:48:07.478Z,21.1
2017-09-10T04:50:05.213Z,21.1
2017-09-10T04:52:10.712Z,21.1
2017-09-10T04:54:05.421Z,21
2017-09-10T04:56:12.237Z,21
2017-09-10T04:58:08.190Z,21
2017-09-10T05:00:04.931Z,21
2017-09-10T05:02:04.673Z,21.1
2017-09-10T05:04:05.594Z,21.1
2017-09-10T05:06:04.811Z,21
2017-09-10T05:08:07.572Z,21
2017-09-10T05:10:05.403Z,21
2017-09-10T05:12:05.112Z,21
2017-09-10T05:14:04.779Z,21
2017-09-10T05:16:05.673Z,21
2017-09-10T05:18:05.611Z,21
2017-09-10T05:20:05.499Z,21
2017-09-10T05:22:07.879Z,21
2017-09-10T05:24:05.615Z,21
2017-09-10T05:26:07.846Z,21
2017-09-10T05:28:05.583Z,21
2017-09-10T05:30:05.288Z,21
2017-09-10T05:32:05.065Z,21
2017-09-10T05:34:04.922Z,21.1
2017-09-10T05:36:04.663Z,21.1
2017-09-10T05:38:05.479Z,21.1
2017-09-10T05:40:08.118Z,21.1
2017-09-10T05:42:04.982Z,21.1
2017-09-10T05:44:04.737Z,21.1
2017-09-10T05:46:05.501Z,21.2
2017-09-10T05:48:04.824Z,21.2
2017-09-10T05:50:08.289Z,21.2
2017-09-10T05:52:05.194Z,21.2
2017-09-10T05:54:07.454Z,21.2
2017-09-10T05:56:07.851Z,21.3
2017-09-10T05:58:14.971Z,21.3
2017-09-10T06:00:07.456Z,21.3
2017-09-10T06:02:04.834Z,21.3
2017-09-10T06:04:08.449Z,21.3
2017-09-10T06:06:05.140Z,21.3
2017-09-10T06:08:04.895Z,21.3
2017-09-10T06:10:05.317Z,21.3
2017-09-10T06:12:15.134Z,21.4
2017-09-10T06:14:04.916Z,21.3
2017-09-10T06:16:07.179Z,21.4
2017-09-10T06:18:05.082Z,21.4
2017-09-10T06:20:04.791Z,21.4
2017-09-10T06:22:08.156Z,21.4
2017-09-10T06:24:15.123Z,21.4
2017-09-10T06:26:04.802Z,21.4
2017-09-10T06:28:10.103Z,21.5
2017-09-10T06:30:04.847Z,21.5
2017-09-10T06:32:08.203Z,21.5
2017-09-10T06:34:05.371Z,21.5
2017-09-10T06:36:07.601Z,21.6
2017-09-10T06:38:07.887Z,21.6
2017-09-10T06:40:05.728Z,21.6
2017-09-10T06:42:05.539Z,21.6
2017-09-10T06:44:07.782Z,21.6
2017-09-10T06:46:05.900Z,21.6
2017-09-10T06:48:04.665Z,21.6
2017-09-10T06:50:05.391Z,21.7
2017-09-10T06:52:05.296Z,21.7
2017-09-10T06:54:05.173Z,21.7
2017-09-10T06:56:05.054Z,21.8
2017-09-10T06:58:04.729Z,21.8
2017-09-10T07:00:05.409Z,21.8
2017-09-10T07:02:05.164Z,21.9
2017-09-10T07:04:07.468Z,21.9
2017-09-10T07:06:05.188Z,21.9
2017-09-10T07:08:04.946Z,21.9
2017-09-10T07:10:04.648Z,22
2017-09-10T07:12:04.975Z,22
2017-09-10T07:14:04.698Z,22
2017-09-10T07:16:05.437Z,22
2017-09-10T07:18:04.748Z,22
2017-09-10T07:20:05.441Z,22
2017-09-10T07:22:07.727Z,22.1
2017-09-10T07:24:05.437Z,22.1
2017-09-10T07:26:05.182Z,22.2
2017-09-10T07:28:07.450Z,22.2
2017-09-10T07:30:07.724Z,22.2
2017-09-10T07:32:07.983Z,22.2
2017-09-10T07:34:04.688Z,22.3
2017-09-10T07:36:04.920Z,22.3
2017-09-10T07:38:04.615Z,22.3
2017-09-10T07:40:10.378Z,22.4
2017-09-10T07:42:05.070Z,22.3
2017-09-10T07:44:07.802Z,22.4
2017-09-10T07:46:05.691Z,22.4
2017-09-10T07:48:05.369Z,22.4
2017-09-10T07:50:04.614Z,22.4
2017-09-10T07:52:05.593Z,22.4
2017-09-10T07:54:07.368Z,22.4
2017-09-10T07:56:05.115Z,22.4
2017-09-10T07:58:07.416Z,22.4
2017-09-10T08:00:05.179Z,22.4
2017-09-10T08:02:04.909Z,22.5
2017-09-10T08:04:05.660Z,22.5
2017-09-10T08:06:05.409Z,22.5
2017-09-10T08:08:05.172Z,22.5
2017-09-10T08:10:04.923Z,22.5
2017-09-10T08:12:04.847Z,22.5
2017-09-10T08:14:05.594Z,22.5
2017-09-10T08:16:07.883Z,22.5
2017-09-10T08:18:04.899Z,22.5
2017-09-10T08:20:08.098Z,22.6
2017-09-10T08:22:04.798Z,22.6
2017-09-10T08:24:05.530Z,22.6
2017-09-10T08:26:07.735Z,22.6
2017-09-10T08:28:05.530Z,22.6
2017-09-10T08:30:08.193Z,22.7
2017-09-10T08:32:04.925Z,22.7
2017-09-10T08:34:04.641Z,22.7
2017-09-10T08:36:05.511Z,22.7
2017-09-10T08:38:04.725Z,22.7
2017-09-10T08:40:04.937Z,22.8
2017-09-10T08:42:05.204Z,22.8
2017-09-10T08:44:05.283Z,22.8
2017-09-10T08:46:04.934Z,22.8
2017-09-10T08:48:04.776Z,22.8
2017-09-10T08:50:05.498Z,22.8
2017-09-10T08:52:05.199Z,22.8
2017-09-10T08:54:05.041Z,22.8
2017-09-10T08:56:09.809Z,22.9
2017-09-10T08:58:05.486Z,22.9
2017-09-10T09:00:05.324Z,22.9
2017-09-10T09:02:05.023Z,22.9
2017-09-10T09:04:09.766Z,22.9
2017-09-10T09:06:05.565Z,22.9
2017-09-10T09:08:07.803Z,22.9
2017-09-10T09:10:08.099Z,22.9
2017-09-10T09:12:04.844Z,23
2017-09-10T09:14:07.905Z,23
2017-09-10T09:16:04.724Z,23
2017-09-10T09:18:04.625Z,23
2017-09-10T09:20:05.331Z,23
2017-09-10T09:22:05.079Z,23.1
2017-09-10T09:24:07.555Z,23.1
2017-09-10T09:26:07.289Z,23.1
2017-09-10T09:28:04.945Z,23.1
2017-09-10T09:30:04.923Z,23.1
2017-09-10T09:32:04.837Z,23.1
2017-09-10T09:34:05.051Z,23.2
2017-09-10T09:36:04.778Z,23.2
2017-09-10T09:38:05.536Z,23.3
2017-09-10T09:40:04.833Z,23.3
2017-09-10T09:42:07.761Z,23.4
2017-09-10T09:44:08.004Z,23.4
2017-09-10T09:46:04.746Z,23.4
2017-09-10T09:48:05.753Z,23.4
2017-09-10T09:50:05.523Z,23.5
2017-09-10T09:52:05.260Z,23.4
2017-09-10T09:54:07.618Z,23.5
2017-09-10T09:56:04.969Z,23.5
2017-09-10T09:58:04.764Z,23.5
2017-09-10T10:00:05.665Z,23.4
2017-09-10T10:02:05.145Z,23.3
2017-09-10T10:04:04.963Z,23.3
2017-09-10T10:06:04.772Z,23.2
2017-09-10T10:08:05.490Z,23.2
2017-09-10T10:10:05.216Z,23.1
2017-09-10T10:12:05.013Z,23
2017-09-10T10:14:04.687Z,23
2017-09-10T10:16:07.455Z,23
2017-09-10T10:18:05.524Z,23
2017-09-10T10:20:07.796Z,22.9
2017-09-10T10:22:05.556Z,22.9
2017-09-10T10:24:08.842Z,22.8
2017-09-10T10:26:05.504Z,22.9
2017-09-10T10:28:05.430Z,22.8
2017-09-10T10:30:07.832Z,22.8
2017-09-10T10:32:05.623Z,22.8
2017-09-10T10:34:07.853Z,22.8
2017-09-10T10:36:05.501Z,22.8
2017-09-10T10:38:05.207Z,22.8
2017-09-10T10:40:05.456Z,22.7
2017-09-10T10:42:10.728Z,22.7
2017-09-10T10:44:05.428Z,22.6
2017-09-10T10:46:05.562Z,22.7
2017-09-10T10:48:07.927Z,22.6
2017-09-10T10:50:04.645Z,22.6
2017-09-10T10:52:05.154Z,22.6
2017-09-10T10:54:07.533Z,22.5
2017-09-10T10:56:07.740Z,22.5
2017-09-10T10:58:05.467Z,22.5
2017-09-10T11:00:07.748Z,22.5
2017-09-10T11:02:05.502Z,22.5
2017-09-10T11:04:05.208Z,22.5
2017-09-10T11:06:05.140Z,22.5
2017-09-10T11:08:07.482Z,22.4
2017-09-10T11:10:05.225Z,22.4
2017-09-10T11:12:04.997Z,22.4
2017-09-10T11:14:04.696Z,22.4
2017-09-10T11:16:05.428Z,22.4
2017-09-10T11:18:05.389Z,22.4
2017-09-10T11:20:05.262Z,22.3
2017-09-10T11:22:04.972Z,22.3
2017-09-10T11:24:07.554Z,22.3
2017-09-10T11:26:04.804Z,22.3
2017-09-10T11:28:05.491Z,22.3
2017-09-10T11:30:05.243Z,22.3
2017-09-10T11:32:04.903Z,22.3
2017-09-10T11:34:07.671Z,22.3
2017-09-10T11:36:05.760Z,22.2
2017-09-10T11:38:05.492Z,22.3
2017-09-10T11:40:05.266Z,22.2
2017-09-10T11:42:10.050Z,22.2
2017-09-10T11:44:04.760Z,22.2
2017-09-10T11:46:05.531Z,22.2
2017-09-10T11:48:04.988Z,22.2
2017-09-10T11:50:04.682Z,22.2
2017-09-10T11:52:10.435Z,22.1
2017-09-10T11:54:05.534Z,22.1
2017-09-10T11:56:10.555Z,22.1
2017-09-10T11:58:05.303Z,22.1
2017-09-10T12:00:05.064Z,22.1
2017-09-10T12:02:07.336Z,22.1
2017-09-10T12:04:05.024Z,22.1
2017-09-10T12:06:07.250Z,22.1
2017-09-10T12:08:05.014Z,22.1
2017-09-10T12:10:04.749Z,22.1
2017-09-10T12:12:14.757Z,22.1
2017-09-10T12:14:05.415Z,22.1
2017-09-10T12:16:05.109Z,22.1
2017-09-10T12:18:05.201Z,22.1
2017-09-10T12:20:04.903Z,22.1
2017-09-10T12:22:07.738Z,22.1
2017-09-10T12:24:05.426Z,22.1
2017-09-10T12:26:05.256Z,22
2017-09-10T12:28:05.585Z,22
2017-09-10T12:30:05.477Z,22.1
2017-09-10T12:32:13.065Z,22
2017-09-10T12:34:04.789Z,22
2017-09-10T12:36:09.817Z,22
2017-09-10T12:38:05.102Z,22.1
2017-09-10T12:40:07.333Z,22
2017-09-10T12:42:05.671Z,22
2017-09-10T12:44:05.513Z,22.1
2017-09-10T12:46:05.231Z,22
2017-09-10T12:48:05.104Z,22
2017-09-10T12:50:04.969Z,22
2017-09-10T12:52:04.738Z,22
2017-09-10T12:54:08.350Z,22
2017-09-10T12:56:08.134Z,22
2017-09-10T12:58:04.836Z,22
2017-09-10T13:00:05.639Z,22
2017-09-10T13:02:05.337Z,22
2017-09-10T13:04:05.575Z,22
2017-09-10T13:06:05.444Z,22
2017-09-10T13:08:04.666Z,22
2017-09-10T13:10:05.642Z,22
2017-09-10T13:12:05.479Z,22
2017-09-10T13:14:05.192Z,22
2017-09-10T13:16:10.111Z,21.9
2017-09-10T13:18:05.237Z,22
2017-09-10T13:20:05.596Z,22
2017-09-10T13:22:04.806Z,21.9
2017-09-10T13:24:10.726Z,21.9
2017-09-10T13:26:05.080Z,21.9
2017-09-10T13:28:04.873Z,21.9
2017-09-10T13:30:05.747Z,21.9
2017-09-10T13:32:07.595Z,21.9
2017-09-10T13:34:05.269Z,21.9
2017-09-10T13:36:05.025Z,21.9
2017-09-10T13:38:04.989Z,21.9
2017-09-10T13:40:04.913Z,21.9
2017-09-10T13:42:04.838Z,21.9
2017-09-10T13:44:05.531Z,21.9
2017-09-10T13:46:05.346Z,21.9
2017-09-10T13:48:07.842Z,21.9
2017-09-10T13:50:10.720Z,21.9
2017-09-10T13:52:05.432Z,21.9
2017-09-10T13:54:05.128Z,21.9
2017-09-10T13:56:04.824Z,21.9
2017-09-10T13:58:05.558Z,21.9
2017-09-10T14:00:05.541Z,21.9
2017-09-10T14:02:07.346Z,21.9
2017-09-10T14:04:05.190Z,21.9
2017-09-10T14:06:05.039Z,21.9
2017-09-10T14:08:10.337Z,21.9
2017-09-10T14:10:08.197Z,21.9
2017-09-10T14:12:05.561Z,21.9
2017-09-10T14:14:07.752Z,21.9
2017-09-10T14:16:08.031Z,21.9
2017-09-10T14:18:05.161Z,21.9
2017-09-10T14:20:07.528Z,21.9
2017-09-10T14:22:05.387Z,21.9
2017-09-10T14:24:04.861Z,21.9
2017-09-10T14:26:05.567Z,21.9
2017-09-10T14:28:05.255Z,21.9
2017-09-10T14:30:05.103Z,21.9
2017-09-10T14:32:07.346Z,21.9
2017-09-10T14:34:12.642Z,21.9
2017-09-10T14:36:12.238Z,21.8
2017-09-10T14:38:05.131Z,21.8
2017-09-10T14:40:19.993Z,21.9
2017-09-10T14:42:07.612Z,21.8
2017-09-10T14:44:05.407Z,21.8
2017-09-10T14:46:05.155Z,21.8
2017-09-10T14:48:04.883Z,21.8
2017-09-10T14:50:05.564Z,21.8
2017-09-10T14:52:04.800Z,21.8
2017-09-10T14:54:07.744Z,21.8
2017-09-10T14:56:10.010Z,21.8
2017-09-10T14:58:04.684Z,21.8
2017-09-10T15:00:05.537Z,21.8
2017-09-10T15:02:05.278Z,21.8
2017-09-10T15:04:07.537Z,21.8
2017-09-10T15:06:04.783Z,21.8
2017-09-10T15:08:05.515Z,21.8
2017-09-10T15:10:05.192Z,21.7
2017-09-10T15:12:07.555Z,21.8
2017-09-10T15:14:05.279Z,21.8
2017-09-10T15:16:04.966Z,21.8
2017-09-10T15:18:05.059Z,21.8
2017-09-10T15:20:04.926Z,21.8
2017-09-10T15:22:04.678Z,21.8
2017-09-10T15:24:05.414Z,21.8
2017-09-10T15:26:04.671Z,21.8
2017-09-10T15:28:05.417Z,21.8
2017-09-10T15:30:04.808Z,21.8
2017-09-10T15:32:05.472Z,21.7
2017-09-10T15:34:05.159Z,21.7
2017-09-10T15:36:05.573Z,21.7
2017-09-10T15:38:05.307Z,21.8
2017-09-10T15:40:15.333Z,21.8
2017-09-10T15:42:07.607Z,21.8
2017-09-10T15:44:05.283Z,21.7
2017-09-10T15:46:05.000Z,21.8
2017-09-10T15:48:05.066Z,21.8
2017-09-10T15:50:04.849Z,21.8
2017-09-10T15:52:05.184Z,21.8
2017-09-10T15:54:07.729Z,21.8
2017-09-10T15:56:05.464Z,21.8
2017-09-10T15:58:05.184Z,21.7
2017-09-10T16:00:05.881Z,21.8
2017-09-10T16:02:05.646Z,21.8
2017-09-10T16:04:05.361Z,21.8
2017-09-10T16:06:05.250Z,21.8
2017-09-10T16:08:05.004Z,21.8
2017-09-10T16:10:04.732Z,21.8
2017-09-10T16:12:10.303Z,21.8
2017-09-10T16:14:04.976Z,21.8
2017-09-10T16:16:05.205Z,21.8
2017-09-10T16:18:09.714Z,21.8
2017-09-10T16:20:04.919Z,21.7
2017-09-10T16:22:05.588Z,21.7
2017-09-10T16:24:05.441Z,21.7
2017-09-10T16:26:05.126Z,21.8
2017-09-10T16:28:05.002Z,21.7
2017-09-10T16:30:04.755Z,21.8
2017-09-10T16:32:05.449Z,21.7
2017-09-10T16:34:07.665Z,21.7
2017-09-10T16:36:05.412Z,21.8
2017-09-10T16:38:07.711Z,21.7
2017-09-10T16:40:05.431Z,21.7
2017-09-10T16:42:05.458Z,21.7
2017-09-10T16:44:05.559Z,21.7
2017-09-10T16:46:04.866Z,21.7
2017-09-10T16:48:05.606Z,21.7
2017-09-10T16:50:09.982Z,21.7
2017-09-10T16:52:05.009Z,21.7
2017-09-10T16:54:07.979Z,21.7
2017-09-10T16:56:04.757Z,21.7
2017-09-10T16:58:05.443Z,21.7
2017-09-10T17:00:05.336Z,21.7
2017-09-10T17:02:04.586Z,21.7
2017-09-10T17:04:04.803Z,21.7
2017-09-10T17:06:05.094Z,21.7
2017-09-10T17:08:07.354Z,21.7
2017-09-10T17:10:07.797Z,21.6
2017-09-10T17:12:05.597Z,21.7
2017-09-10T17:14:05.385Z,21.7
2017-09-10T17:16:05.294Z,21.7
2017-09-10T17:18:05.544Z,21.7
2017-09-10T17:20:06.253Z,21.7
2017-09-10T17:22:05.564Z,21.6
2017-09-10T17:24:15.525Z,21.6
2017-09-10T17:26:05.331Z,21.6
2017-09-10T17:28:04.988Z,21.6
2017-09-10T17:30:04.690Z,21.6
2017-09-10T17:32:05.443Z,21.6
2017-09-10T17:34:05.991Z,21.7
2017-09-10T17:36:07.405Z,21.6
2017-09-10T17:38:07.851Z,21.6
2017-09-10T17:40:05.701Z,21.6
2017-09-10T17:42:04.739Z,21.6
2017-09-10T17:44:05.584Z,21.6
2017-09-10T17:46:05.298Z,21.6
2017-09-10T17:48:05.136Z,21.6
2017-09-10T17:50:07.904Z,21.6
2017-09-10T17:52:04.841Z,21.6
2017-09-10T17:54:05.059Z,21.6
2017-09-10T17:56:04.980Z,21.6
2017-09-10T17:58:07.235Z,21.6
2017-09-10T18:00:05.492Z,21.6
2017-09-10T18:02:05.170Z,21.6
2017-09-10T18:04:04.918Z,21.5
2017-09-10T18:06:04.797Z,21.6
2017-09-10T18:08:10.082Z,21.5
2017-09-10T18:10:04.832Z,21.5
2017-09-10T18:12:07.744Z,21.5
2017-09-10T18:14:05.597Z,21.5
2017-09-10T18:16:05.288Z,21.5
2017-09-10T18:18:05.282Z,21.5
2017-09-10T18:20:05.038Z,21.5
2017-09-10T18:22:10.360Z,21.5
2017-09-10T18:24:05.203Z,21.5
2017-09-10T18:26:15.518Z,21.5
2017-09-10T18:28:05.251Z,21.5
2017-09-10T18:30:12.993Z,21.5
2017-09-10T18:32:05.254Z,21.5
2017-09-10T18:34:05.200Z,21.5
2017-09-10T18:36:05.464Z,21.5
2017-09-10T18:38:05.145Z,21.5
2017-09-10T18:40:09.924Z,21.5
2017-09-10T18:42:04.994Z,21.5
2017-09-10T18:44:07.174Z,21.5
2017-09-10T18:46:04.849Z,21.4
2017-09-10T18:48:05.721Z,21.4
2017-09-10T18:50:05.373Z,21.4
2017-09-10T18:52:05.618Z,21.4
2017-09-10T18:54:10.350Z,21.4
2017-09-10T18:56:04.652Z,21.5
2017-09-10T18:58:07.911Z,21.4
2017-09-10T19:00:04.672Z,21.4
2017-09-10T19:02:05.422Z,21.4
2017-09-10T19:04:05.105Z,21.4
2017-09-10T19:06:05.187Z,21.4
2017-09-10T19:08:05.101Z,21.4
2017-09-10T19:10:04.788Z,21.4
2017-09-10T19:12:04.770Z,21.4
2017-09-10T19:14:05.530Z,21.4
2017-09-10T19:16:05.267Z,21.4
2017-09-10T19:18:05.304Z,21.4
2017-09-10T19:20:05.043Z,21.4
2017-09-10T19:22:05.341Z,21.4
2017-09-10T19:24:05.212Z,21.3
2017-09-10T19:26:05.117Z,21.3
2017-09-10T19:28:04.778Z,21.4
2017-09-10T19:30:05.580Z,21.4
2017-09-10T19:32:05.281Z,21.3
2017-09-10T19:34:08.095Z,21.3
2017-09-10T19:36:07.395Z,21.3
2017-09-10T19:38:04.885Z,21.3
2017-09-10T19:40:05.428Z,21.3
2017-09-10T19:42:05.264Z,21.3
2017-09-10T19:44:04.983Z,21.3
2017-09-10T19:46:04.761Z,21.3
2017-09-10T19:48:05.631Z,21.3
2017-09-10T19:50:05.314Z,21.3
2017-09-10T19:52:05.593Z,21.3
2017-09-10T19:54:07.958Z,21.3
2017-09-10T19:56:04.800Z,21.3
2017-09-10T19:58:05.538Z,21.3
2017-09-10T20:00:05.571Z,21.3
2017-09-10T20:02:08.014Z,21.3
2017-09-10T20:04:04.769Z,21.3
2017-09-10T20:06:10.870Z,21.3
2017-09-10T20:08:05.566Z,21.3
2017-09-10T20:10:07.374Z,21.3
2017-09-10T20:12:05.977Z,21.3
2017-09-10T20:14:04.729Z,21.3
2017-09-10T20:16:05.446Z,21.3
2017-09-10T20:18:07.956Z,21.2
2017-09-10T20:20:05.401Z,21.3
2017-09-10T20:22:05.101Z,21.2
2017-09-10T20:24:05.184Z,21.2
2017-09-10T20:26:08.140Z,21.2
2017-09-10T20:28:05.187Z,21.2
2017-09-10T20:30:05.419Z,21.3
2017-09-10T20:32:11.489Z,21.3
2017-09-10T20:34:07.758Z,21.2
2017-09-10T20:36:05.507Z,21.3
2017-09-10T20:38:05.230Z,21.2
2017-09-10T20:40:04.943Z,21.2
2017-09-10T20:42:10.002Z,21.2
2017-09-10T20:44:05.012Z,21.2
2017-09-10T20:46:05.115Z,21.2
2017-09-10T20:48:05.168Z,21.2
2017-09-10T20:50:10.076Z,21.2
2017-09-10T20:52:04.850Z,21.2
2017-09-10T20:54:05.087Z,21.3
2017-09-10T20:56:05.464Z,21.3
2017-09-10T20:58:05.237Z,21.2
2017-09-10T21:00:05.840Z,21.2
2017-09-10T21:02:05.357Z,21.2
2017-09-10T21:04:04.621Z,21.2
2017-09-10T21:06:04.651Z,21.2
2017-09-10T21:08:05.377Z,21.2
2017-09-10T21:10:05.049Z,21.2
2017-09-10T21:12:05.012Z,21.2
2017-09-10T21:14:07.394Z,21.2
2017-09-10T21:16:05.187Z,21.2
2017-09-10T21:18:05.173Z,21.2
2017-09-10T21:20:04.935Z,21.2
2017-09-10T21:22:05.669Z,21.2
2017-09-10T21:24:08.068Z,21.2
2017-09-10T21:26:04.787Z,21.2
2017-09-10T21:28:04.789Z,21.2
2017-09-10T21:30:05.524Z,21.2
2017-09-10T21:32:05.381Z,21.2
2017-09-10T21:34:05.024Z,21.1
2017-09-10T21:36:05.132Z,21.2
2017-09-10T21:38:09.975Z,21.1
2017-09-10T21:40:04.828Z,21.1
2017-09-10T21:42:08.285Z,21.1
2017-09-10T21:44:12.684Z,21.1
2017-09-10T21:46:04.621Z,21.1
2017-09-10T21:48:05.450Z,20.9
2017-09-10T21:50:07.219Z,21.1
2017-09-10T21:52:04.881Z,21.1
2017-09-10T21:54:04.769Z,21.1
2017-09-10T21:56:05.484Z,21.1
2017-09-10T21:58:05.212Z,21.1
2017-09-10T22:00:07.751Z,21.1
2017-09-10T22:02:05.426Z,21.1
2017-09-10T22:04:05.471Z,21.1
2017-09-10T22:06:05.478Z,21.1
2017-09-10T22:08:06.173Z,21.1
2017-09-10T22:10:04.861Z,21.1
2017-09-10T22:12:04.643Z,21.1
2017-09-10T22:14:05.343Z,21.1
2017-09-10T22:16:05.606Z,21.1
2017-09-10T22:18:11.689Z,21.1
2017-09-10T22:20:05.374Z,21.1
2017-09-10T22:22:07.278Z,21.1
2017-09-10T22:24:05.023Z,21.1
2017-09-10T22:26:04.762Z,21.1
2017-09-10T22:28:07.981Z,8.3
2017-09-10T22:30:05.369Z,21.1
2017-09-10T22:32:05.064Z,21.1
2017-09-10T22:34:07.300Z,21.1
2017-09-10T22:36:05.153Z,21.1
2017-09-10T22:38:05.059Z,21.1
2017-09-10T22:40:04.828Z,21.1
2017-09-10T22:42:05.648Z,21.1
2017-09-10T22:44:05.295Z,21
2017-09-10T22:46:05.547Z,21.1
2017-09-10T22:48:07.936Z,21.1
2017-09-10T22:50:07.376Z,21
2017-09-10T22:52:05.235Z,21
2017-09-10T22:54:05.294Z,21
2017-09-10T22:56:07.606Z,21
2017-09-10T22:58:10.482Z,21
2017-09-10T23:00:12.789Z,21
2017-09-10T23:02:04.671Z,21
2017-09-10T23:04:08.837Z,21.1
2017-09-10T23:06:10.519Z,21
2017-09-10T23:08:05.452Z,21
2017-09-10T23:10:07.733Z,21
2017-09-10T23:12:05.509Z,21
2017-09-10T23:14:05.164Z,21
2017-09-10T23:16:05.414Z,21
2017-09-10T23:18:05.369Z,21.1
2017-09-10T23:20:07.665Z,21
2017-09-10T23:22:04.920Z,21
2017-09-10T23:24:04.657Z,21
2017-09-10T23:26:05.317Z,21
2017-09-10T23:28:05.036Z,21
2017-09-10T23:30:07.382Z,21
2017-09-10T23:32:07.669Z,21
2017-09-10T23:34:07.954Z,21
2017-09-10T23:36:05.021Z,21
2017-09-10T23:38:04.762Z,21
2017-09-10T23:40:05.747Z,21
2017-09-10T23:42:05.108Z,21
2017-09-10T23:44:07.346Z,21
2017-09-10T23:46:05.069Z,21
2017-09-10T23:48:04.816Z,20.9
2017-09-10T23:50:05.658Z,21
2017-09-10T23:52:05.393Z,21
2017-09-10T23:54:05.418Z,21
2017-09-10T23:56:05.353Z,20.9
2017-09-10T23:58:05.039Z,21
